Time;durP1;ratioP1;P1;durP2;ratioP2;P2;SDS_P1;SDS_P2;PMS_P1;PMS_P2;Temp;Humidity;BMP_temperature;BMP_pressure;BME280_temperature;BME280_humidity;BME280_pressure;Samples;Min_cycle;Max_cycle;Signal;HPM_P1;HPM_P2
2024/03/20 00:01:05;;;;;;;6.25;2.95;;;17.00;77.50;;;;;;4171382;28;20784;-61
2024/03/20 00:03:45;;;;;;;5.47;3.15;;;17.00;77.50;;;;;;4170104;28;20114;-60
2024/03/20 00:06:26;;;;;;;6.55;2.85;;;17.00;77.60;;;;;;4147214;28;20048;-60
2024/03/20 00:09:07;;;;;;;;;;;17.00;77.40;;;;;;4171739;28;20079;-60
2024/03/20 00:11:47;;;;;;;5.10;2.95;;;16.90;77.50;;;;;;4172341;28;19971;-59
2024/03/20 00:14:28;;;;;;;5.85;3.58;;;16.90;78.10;;;;;;4165716;28;20076;-61
2024/03/20 00:17:08;;;;;;;5.18;2.95;;;16.90;78.00;;;;;;4131624;28;20060;-53
2024/03/20 00:19:49;;;;;;;3.90;2.90;;;16.90;78.00;;;;;;4154782;28;20456;-54
2024/03/20 00:22:32;;;;;;;;;;;16.90;78.00;;;;;;4159300;28;20403;-52
2024/03/20 00:25:12;;;;;;;;;;;16.90;78.00;;;;;;4170703;28;20391;-52
2024/03/20 00:27:52;;;;;;;7.80;2.85;;;16.90;78.70;;;;;;4163470;28;19928;-51
2024/03/20 00:30:32;;;;;;;4.22;2.92;;;16.90;79.00;;;;;;4156127;28;20188;-50
2024/03/20 00:33:13;;;;;;;7.18;3.15;;;16.90;78.70;;;;;;4161397;28;20445;-51
2024/03/20 00:35:53;;;;;;;8.60;3.05;;;16.80;78.60;;;;;;4171315;28;20052;-53
2024/03/20 00:38:34;;;;;;;6.60;3.08;;;16.90;79.40;;;;;;4158104;28;20056;-55
2024/03/20 00:41:14;;;;;;;5.75;2.92;;;16.90;78.50;;;;;;4151266;28;20068;-50
2024/03/20 00:43:54;;;;;;;8.38;3.20;;;16.80;78.50;;;;;;4151127;28;20110;-51
2024/03/20 00:46:34;;;;;;;5.47;3.90;;;16.80;79.40;;;;;;4140939;28;20128;-51
2024/03/20 00:49:14;;;;;;;8.23;3.47;;;16.80;78.50;;;;;;4153018;28;20056;-51
2024/03/20 00:51:55;;;;;;;7.03;3.33;;;16.80;78.60;;;;;;4155215;28;20052;-53
2024/03/20 00:54:38;;;;;;;6.73;3.43;;;16.80;78.70;;;;;;4161934;28;20056;-52
2024/03/20 00:57:18;;;;;;;6.22;2.60;;;16.80;78.70;;;;;;4146223;28;20102;-52
2024/03/20 00:59:58;;;;;;;6.13;3.15;;;16.80;78.80;;;;;;4170333;28;20047;-52
2024/03/20 01:02:38;;;;;;;5.57;3.00;;;16.80;78.80;;;;;;4155470;28;20129;-53
2024/03/20 01:05:18;;;;;;;6.88;3.20;;;16.80;78.90;;;;;;4155836;28;20052;-50
2024/03/20 01:07:58;;;;;;;6.05;2.88;;;16.80;78.90;;;;;;4165877;28;20064;-57
2024/03/20 01:10:39;;;;;;;4.72;2.92;;;16.80;79.00;;;;;;4157156;28;20098;-51
2024/03/20 01:13:22;;;;;;;6.35;3.22;;;16.80;79.00;;;;;;4153650;28;20051;-54
2024/03/20 01:16:02;;;;;;;4.45;3.00;;;16.80;79.20;;;;;;4166666;28;20052;-54
2024/03/20 01:18:42;;;;;;;4.88;3.08;;;16.80;79.00;;;;;;4143556;28;20550;-54
2024/03/20 01:21:22;;;;;;;3.63;2.72;;;16.80;79.10;;;;;;4154264;28;20055;-52
2024/03/20 01:24:03;;;;;;;5.45;2.92;;;16.70;79.20;;;;;;4156926;28;20590;-54
2024/03/20 01:26:44;;;;;;;7.07;3.38;;;16.70;79.10;;;;;;4154274;28;20107;-54
2024/03/20 01:29:24;;;;;;;7.10;3.17;;;16.80;79.30;;;;;;4153483;28;20546;-54
2024/03/20 01:32:04;;;;;;;6.85;3.15;;;16.70;80.20;;;;;;4165207;28;20124;-52
2024/03/20 01:34:43;;;;;;;3.72;2.95;;;16.70;79.30;;;;;;4153989;28;20880;-53
2024/03/20 01:37:23;;;;;;;7.22;3.33;;;16.70;79.40;;;;;;4155313;28;20076;-51
2024/03/20 01:40:06;;;;;;;7.15;3.35;;;16.70;79.40;;;;;;4164481;28;20590;-51
2024/03/20 01:42:47;;;;;;;12.48;3.47;;;16.70;79.40;;;;;;4155566;28;20132;-53
2024/03/20 01:45:27;;;;;;;9.18;3.33;;;16.70;79.50;;;;;;4170317;28;20438;-51
2024/03/20 01:48:08;;;;;;;9.68;3.83;;;16.70;79.60;;;;;;4142441;28;20135;-51
2024/03/20 01:50:48;;;;;;;;;;;16.70;79.60;;;;;;4166100;28;20467;-52
2024/03/20 01:53:29;;;;;;;5.30;2.50;;;16.70;79.70;;;;;;4167274;28;20279;-53
2024/03/20 01:56:09;;;;;;;6.68;3.05;;;16.70;80.30;;;;;;4167455;28;20079;-51
2024/03/20 01:58:50;;;;;;;6.35;3.10;;;16.70;80.10;;;;;;4169075;28;20407;-52
2024/03/20 02:01:30;;;;;;;7.75;3.30;;;16.70;79.90;;;;;;4166993;28;20095;-50
2024/03/20 02:04:10;;;;;;;12.27;3.72;;;16.70;80.00;;;;;;4147925;28;20110;-51
2024/03/20 02:06:50;;;;;;;6.68;3.08;;;16.70;80.00;;;;;;4153177;28;20267;-52
2024/03/20 02:09:30;;;;;;;8.27;3.42;;;16.70;80.00;;;;;;4168980;28;20047;-51
2024/03/20 02:12:11;;;;;;;8.32;3.88;;;16.60;79.90;;;;;;4154325;28;20179;-54
2024/03/20 02:14:52;;;;;;;9.32;3.90;;;16.60;79.90;;;;;;4158424;28;20140;-53
2024/03/20 02:17:32;;;;;;;;;;;16.60;79.90;;;;;;4154927;28;20053;-54
2024/03/20 02:20:13;;;;;;;5.10;3.30;;;16.60;80.00;;;;;;4164805;28;19928;-54
2024/03/20 02:22:54;;;;;;;8.15;3.53;;;16.60;80.60;;;;;;4145625;28;20064;-52
2024/03/20 02:25:34;;;;;;;;;;;16.60;80.40;;;;;;4168807;28;20506;-54
2024/03/20 02:28:14;;;;;;;4.60;3.53;;;16.60;80.40;;;;;;4168237;28;19955;-54
2024/03/20 02:30:55;;;;;;;7.40;3.60;;;16.60;80.90;;;;;;4157858;28;20137;-53
2024/03/20 02:33:36;;;;;;;9.15;3.67;;;16.60;80.60;;;;;;4165735;28;20129;-54
2024/03/20 02:36:15;;;;;;;5.63;3.77;;;16.60;80.50;;;;;;4155654;28;20060;-53
2024/03/20 02:38:57;;;;;;;7.75;3.35;;;16.60;80.60;;;;;;4163064;28;20388;-54
2024/03/20 02:41:37;;;;;;;8.63;3.67;;;16.60;80.60;;;;;;4167912;28;20526;-52
2024/03/20 02:44:17;;;;;;;5.95;3.88;;;16.60;80.60;;;;;;4167148;28;20172;-53
2024/03/20 02:46:56;;;;;;;8.27;3.78;;;16.60;80.60;;;;;;4146681;28;20091;-53
2024/03/20 02:49:36;;;;;;;9.45;4.05;;;16.60;80.60;;;;;;4154144;28;20064;-53
2024/03/20 02:52:18;;;;;;;9.07;3.65;;;16.60;80.60;;;;;;4166629;28;20052;-52
2024/03/20 02:54:59;;;;;;;4.00;3.00;;;16.60;80.60;;;;;;4152689;28;20052;-53
2024/03/20 02:57:39;;;;;;;5.45;3.55;;;16.60;80.60;;;;;;4143341;28;20048;-52
2024/03/20 03:00:20;;;;;;;8.88;3.70;;;16.60;80.70;;;;;;4152945;28;20499;-53
2024/03/20 03:03:00;;;;;;;5.18;3.78;;;16.60;80.70;;;;;;4163354;28;20110;-52
2024/03/20 03:05:40;;;;;;;7.22;4.32;;;16.50;80.70;;;;;;4161467;28;20052;-60
2024/03/20 03:08:20;;;;;;;5.32;3.53;;;16.60;80.80;;;;;;4161417;28;20056;-60
2024/03/20 03:11:03;;;;;;;8.30;3.90;;;16.50;80.70;;;;;;4157281;28;20502;-60
2024/03/20 03:13:44;;;;;;;10.38;4.32;;;16.60;80.90;;;;;;4168838;28;20047;-60
2024/03/20 03:16:25;;;;;;;8.10;3.75;;;16.50;80.80;;;;;;4157414;28;20063;-52
2024/03/20 03:19:05;;;;;;;8.30;3.83;;;16.50;81.70;;;;;;4168006;28;20433;-53
2024/03/20 03:21:45;;;;;;;6.95;4.10;;;16.50;80.80;;;;;;4168867;28;20056;-60
2024/03/20 03:24:25;;;;;;;11.55;4.13;;;16.50;80.80;;;;;;4167932;28;20052;-60
2024/03/20 03:27:07;;;;;;;7.05;4.05;;;16.50;80.90;;;;;;4151730;28;20080;-60
2024/03/20 03:29:47;;;;;;;;;;;16.50;80.90;;;;;;4147538;28;20064;-60
2024/03/20 03:32:27;;;;;;;8.73;3.40;;;16.50;80.90;;;;;;4151915;28;19963;-51
2024/03/20 03:35:08;;;;;;;8.30;3.75;;;16.50;81.50;;;;;;4152634;28;20107;-59
2024/03/20 03:37:49;;;;;;;7.63;3.78;;;16.50;81.30;;;;;;4152847;28;20519;-60
2024/03/20 03:40:29;;;;;;;8.05;3.83;;;16.50;81.20;;;;;;4138853;28;20104;-60
2024/03/20 03:43:10;;;;;;;9.02;4.20;;;16.50;81.20;;;;;;4162236;28;20051;-60
2024/03/20 03:45:51;;;;;;;8.88;3.88;;;16.40;81.20;;;;;;4145157;28;20061;-60
2024/03/20 03:48:31;;;;;;;5.32;3.75;;;16.50;81.40;;;;;;4168518;28;20056;-61
2024/03/20 03:51:11;;;;;;;7.03;4.32;;;16.50;81.30;;;;;;4155945;28;20052;-60
2024/03/20 03:53:51;;;;;;;6.47;3.65;;;16.50;81.20;;;;;;4156424;28;20134;-60
2024/03/20 03:56:31;;;;;;;14.32;4.65;;;16.50;82.10;;;;;;4162637;28;20129;-60
2024/03/20 03:59:12;;;;;;;8.93;3.80;;;16.40;81.20;;;;;;4157750;28;20056;-61
2024/03/20 04:01:52;;;;;;;;;;;16.40;81.20;;;;;;4168692;28;20056;-60
2024/03/20 04:04:33;;;;;;;4.97;3.53;;;16.50;81.30;;;;;;4163880;28;19952;-61
2024/03/20 04:07:13;;;;;;;8.30;3.80;;;16.40;81.80;;;;;;4155076;28;20550;-60
2024/03/20 04:09:54;;;;;;;7.60;4.22;;;16.40;81.60;;;;;;4155612;28;20231;-60
2024/03/20 04:12:34;;;;;;;12.32;4.97;;;16.40;81.60;;;;;;4162022;28;20510;-60
2024/03/20 04:15:15;;;;;;;5.60;3.90;;;16.40;81.60;;;;;;4152663;28;20063;-61
2024/03/20 04:17:55;;;;;;;8.57;3.83;;;16.40;81.50;;;;;;4156363;28;20048;-60
2024/03/20 04:20:35;;;;;;;7.75;4.63;;;16.40;81.60;;;;;;4155619;28;20180;-60
2024/03/20 04:23:15;;;;;;;10.82;4.25;;;16.40;81.50;;;;;;4154653;28;20143;-60
2024/03/20 04:25:55;;;;;;;7.97;4.40;;;16.40;81.50;;;;;;4148132;28;20053;-60
2024/03/20 04:28:35;;;;;;;7.70;4.22;;;16.40;81.50;;;;;;4137870;28;20053;-53
2024/03/20 04:31:17;;;;;;;8.82;4.63;;;16.40;81.50;;;;;;4156438;28;20127;-52
2024/03/20 04:33:57;;;;;;;;;;;16.40;81.50;;;;;;4161293;28;20110;-51
2024/03/20 04:36:37;;;;;;;9.20;4.53;;;16.40;81.50;;;;;;4159823;28;20494;-51
2024/03/20 04:39:18;;;;;;;9.85;4.68;;;16.40;82.20;;;;;;4156173;28;20048;-53
2024/03/20 04:41:58;;;;;;;;;;;16.30;82.00;;;;;;4170191;28;20048;-51
2024/03/20 04:44:39;;;;;;;6.35;4.35;;;16.30;81.90;;;;;;4160102;28;19931;-54
2024/03/20 04:47:21;;;;;;;9.85;4.07;;;16.30;83.30;;;;;;4154429;28;20107;-52
2024/03/20 04:50:01;;;;;;;7.95;4.53;;;16.30;82.20;;;;;;4153129;28;20052;-54
2024/03/20 04:52:41;;;;;;;9.40;4.60;;;16.30;83.00;;;;;;4142564;28;20098;-53
2024/03/20 04:55:21;;;;;;;6.03;4.70;;;16.30;82.90;;;;;;4143209;28;20568;-53
2024/03/20 04:58:02;;;;;;;9.02;4.80;;;16.30;82.10;;;;;;4155230;28;20059;-54
2024/03/20 05:00:41;;;;;;;10.10;4.70;;;16.30;82.10;;;;;;4155423;28;20052;-51
2024/03/20 05:03:23;;;;;;;9.57;6.03;;;16.30;82.10;;;;;;4168710;28;20090;-53
2024/03/20 05:06:03;;;;;;;;;;;16.30;82.00;;;;;;4156087;28;20060;-53
2024/03/20 05:08:44;;;;;;;9.43;5.07;;;16.30;82.00;;;;;;4169775;28;19927;-53
2024/03/20 05:11:24;;;;;;;11.60;5.43;;;16.30;82.60;;;;;;4163699;28;20507;-50
2024/03/20 05:14:04;;;;;;;6.53;4.95;;;16.30;82.40;;;;;;4154499;28;20048;-52
2024/03/20 05:16:45;;;;;;;9.30;5.43;;;16.30;82.30;;;;;;4167675;28;20131;-51
2024/03/20 05:19:25;;;;;;;17.83;5.35;;;16.30;82.20;;;;;;4154014;28;20051;-50
2024/03/20 05:22:06;;;;;;;10.87;6.00;;;16.30;82.20;;;;;;4154058;28;20111;-50
2024/03/20 05:24:48;;;;;;;9.93;5.53;;;16.30;82.20;;;;;;4170496;28;20416;-50
2024/03/20 05:27:29;;;;;;;10.57;5.60;;;16.30;83.00;;;;;;4150023;28;20099;-51
2024/03/20 05:30:09;;;;;;;11.07;5.55;;;16.30;82.20;;;;;;4166718;28;20099;-50
2024/03/20 05:32:49;;;;;;;11.27;5.53;;;16.20;82.10;;;;;;4155160;28;20092;-51
2024/03/20 05:35:29;;;;;;;9.30;5.43;;;16.30;82.30;;;;;;4142589;28;20052;-50
2024/03/20 05:38:09;;;;;;;11.95;5.40;;;16.30;82.20;;;;;;4152486;28;20115;-50
2024/03/20 05:40:48;;;;;;;7.40;5.13;;;16.30;82.20;;;;;;4151195;28;20060;-50
2024/03/20 05:43:28;;;;;;;11.68;5.90;;;16.20;82.20;;;;;;4153787;28;20056;-51
2024/03/20 05:46:09;;;;;;;8.93;5.53;;;16.20;82.20;;;;;;4168091;28;20052;-50
2024/03/20 05:48:49;;;;;;;7.32;5.10;;;16.30;82.20;;;;;;4162966;28;20067;-50
2024/03/20 05:51:29;;;;;;;12.43;5.78;;;16.20;82.20;;;;;;4156144;28;20109;-50
2024/03/20 05:54:09;;;;;;;8.43;5.55;;;16.20;82.20;;;;;;4138485;28;20053;-60
2024/03/20 05:56:49;;;;;;;10.35;5.40;;;16.20;83.10;;;;;;4165036;28;20064;-60
2024/03/20 05:59:29;;;;;;;11.15;6.72;;;16.20;82.20;;;;;;4152269;28;20352;-60
2024/03/20 06:02:09;;;;;;;8.90;5.82;;;16.20;82.30;;;;;;4169978;28;20056;-58
2024/03/20 06:04:48;;;;;;;11.00;6.40;;;16.20;82.20;;;;;;4170262;28;20144;-60
2024/03/20 06:07:29;;;;;;;11.35;6.13;;;16.20;82.30;;;;;;4145846;28;20467;-60
2024/03/20 06:10:09;;;;;;;8.63;6.00;;;16.30;82.50;;;;;;4153584;28;20547;-60
2024/03/20 06:12:49;;;;;;;10.25;5.38;;;16.30;82.60;;;;;;4146618;28;20052;-60
2024/03/20 06:15:28;;;;;;;9.73;6.38;;;16.30;82.50;;;;;;4162517;28;20051;-51
2024/03/20 06:18:09;;;;;;;8.98;5.60;;;16.30;82.40;;;;;;4169570;28;20167;-50
2024/03/20 06:20:50;;;;;;;14.98;6.65;;;16.30;82.30;;;;;;4167991;28;20052;-53
2024/03/20 06:23:31;;;;;;;7.97;6.05;;;16.30;82.20;;;;;;4167027;28;20052;-57
2024/03/20 06:26:10;;;;;;;10.57;6.70;;;16.30;81.70;;;;;;4168353;28;20056;-57
2024/03/20 06:28:51;;;;;;;12.82;6.40;;;16.30;82.30;;;;;;4168121;28;20060;-57
2024/03/20 06:31:30;;;;;;;9.63;7.37;;;16.20;82.20;;;;;;4168415;28;20498;-57
2024/03/20 06:34:10;;;;;;;10.60;6.60;;;16.20;82.20;;;;;;4167207;28;20071;-55
2024/03/20 06:36:49;;;;;;;11.90;7.25;;;16.20;82.30;;;;;;4138045;28;20061;-54
2024/03/20 06:39:31;;;;;;;11.38;6.85;;;16.20;83.40;;;;;;4153649;28;20084;-53
2024/03/20 06:42:16;;;;;;;11.00;6.90;;;16.20;83.80;;;;;;4140367;28;20080;-53
2024/03/20 06:44:56;;;;;;;12.85;6.57;;;16.20;83.90;;;;;;4156153;28;20411;-53
2024/03/20 06:47:35;;;;;;;13.43;7.55;;;16.20;83.70;;;;;;4165752;28;20048;-53
2024/03/20 06:50:15;;;;;;;13.30;7.00;;;16.20;83.70;;;;;;4140872;28;20056;-54
2024/03/20 06:52:57;;;;;;;12.02;6.80;;;16.20;83.50;;;;;;4155860;28;20129;-52
2024/03/20 06:55:40;;;;;;;9.95;6.47;;;16.20;83.40;;;;;;4160223;28;20048;-53
2024/03/20 06:58:19;;;;;;;12.45;6.38;;;16.20;83.20;;;;;;4149944;28;20111;-53
2024/03/20 07:01:00;;;;;;;19.92;7.20;;;16.20;83.30;;;;;;4163986;28;20064;-53
2024/03/20 07:03:40;;;;;;;13.18;7.15;;;16.20;83.30;;;;;;4153256;28;20052;-50
2024/03/20 07:06:20;;;;;;;12.77;7.25;;;16.20;83.40;;;;;;4158466;28;20182;-52
2024/03/20 07:08:59;;;;;;;13.75;7.45;;;16.20;83.30;;;;;;4168205;28;20468;-53
2024/03/20 07:11:40;;;;;;;12.85;6.88;;;16.20;83.20;;;;;;4157889;28;20060;-58
2024/03/20 07:14:20;;;;;;;;;;;16.20;83.20;;;;;;4169606;28;20051;-54
2024/03/20 07:17:00;;;;;;;10.20;6.22;;;16.20;83.20;;;;;;4161751;28;19928;-53
2024/03/20 07:19:40;;;;;;;12.55;6.72;;;16.20;83.60;;;;;;4136396;28;20056;-52
2024/03/20 07:22:19;;;;;;;11.30;6.75;;;16.20;83.30;;;;;;4138219;28;20061;-51
2024/03/20 07:25:01;;;;;;;10.00;6.85;;;16.20;83.00;;;;;;4148102;28;20392;-50
2024/03/20 07:27:43;;;;;;;11.88;6.45;;;16.20;82.90;;;;;;4161638;28;20048;-53
2024/03/20 07:30:24;;;;;;;13.18;6.95;;;16.20;83.00;;;;;;4168089;28;20059;-50
2024/03/20 07:33:03;;;;;;;12.90;7.55;;;16.20;83.20;;;;;;4166255;28;20068;-55
2024/03/20 07:35:46;;;;;;;8.52;6.13;;;16.10;83.10;;;;;;4141360;28;20051;-52
2024/03/20 07:38:26;;;;;;;12.25;6.22;;;16.20;83.10;;;;;;4161216;28;20110;-51
2024/03/20 07:41:06;;;;;;;10.77;6.22;;;16.20;83.30;;;;;;4154880;28;20064;-51
2024/03/20 07:43:46;;;;;;;15.13;7.05;;;16.20;83.40;;;;;;4155397;28;20056;-53
2024/03/20 07:46:27;;;;;;;13.25;7.13;;;16.10;83.40;;;;;;4154491;28;20052;-50
2024/03/20 07:49:06;;;;;;;9.00;6.60;;;16.20;83.40;;;;;;4142120;28;20057;-51
2024/03/20 07:51:46;;;;;;;9.20;6.22;;;16.10;83.00;;;;;;4143304;28;20069;-60
2024/03/20 07:54:24;;;;;;;11.32;6.72;;;16.10;83.00;;;;;;4170051;28;20079;-59
2024/03/20 07:57:05;;;;;;;11.18;7.25;;;16.20;83.10;;;;;;4151512;28;20111;-59
2024/03/20 07:59:45;;;;;;;10.45;6.82;;;16.10;83.00;;;;;;4154285;28;20224;-60
2024/03/20 08:02:25;;;;;;;11.90;6.60;;;16.20;83.00;;;;;;4155515;28;20068;-59
2024/03/20 08:05:06;;;;;;;13.57;6.95;;;16.20;83.00;;;;;;4155452;28;20607;-51
2024/03/20 08:07:46;;;;;;;11.93;6.40;;;16.10;83.00;;;;;;4162757;28;20056;-51
2024/03/20 08:10:27;;;;;;;11.73;6.22;;;16.10;84.00;;;;;;4140903;28;20290;-50
2024/03/20 08:13:09;;;;;;;14.80;7.05;;;16.20;83.40;;;;;;4155060;28;20052;-59
2024/03/20 08:15:50;;;;;;;10.23;6.55;;;16.20;83.60;;;;;;4141810;28;20132;-51
2024/03/20 08:18:31;;;;;;;10.43;6.47;;;16.20;83.50;;;;;;4167884;28;20075;-53
2024/03/20 08:21:13;;;;;;;11.13;6.38;;;16.20;84.40;;;;;;4171241;28;20056;-58
2024/03/20 08:23:52;;;;;;;8.20;5.97;;;16.20;83.50;;;;;;4160898;28;20135;-58
2024/03/20 08:26:32;;;;;;;14.10;6.22;;;16.20;84.30;;;;;;4168544;28;20464;-60
2024/03/20 08:29:11;;;;;;;14.02;7.00;;;16.30;84.40;;;;;;4155241;28;20095;-63
2024/03/20 08:31:53;;;;;;;11.18;5.82;;;16.30;84.10;;;;;;4170456;28;20063;-57
2024/03/20 08:34:32;;;;;;;12.25;5.80;;;16.30;83.80;;;;;;4169548;28;20056;-53
2024/03/20 08:37:12;;;;;;;12.35;6.07;;;16.40;83.50;;;;;;4161534;28;20059;-56
2024/03/20 08:39:51;;;;;;;11.48;6.40;;;16.40;83.30;;;;;;4168736;28;20060;-50
2024/03/20 08:42:31;;;;;;;15.18;6.53;;;16.50;83.10;;;;;;4154346;28;20068;-54
2024/03/20 08:45:11;;;;;;;14.05;6.43;;;16.50;82.80;;;;;;4150181;28;20052;-55
2024/03/20 08:47:52;;;;;;;13.63;5.97;;;16.50;82.60;;;;;;4156710;28;20106;-53
2024/03/20 08:50:31;;;;;;;11.05;5.85;;;16.60;82.50;;;;;;4167935;28;20548;-62
2024/03/20 08:53:12;;;;;;;11.18;5.85;;;16.60;82.20;;;;;;4155089;28;20047;-61
2024/03/20 08:55:51;;;;;;;14.98;6.43;;;16.60;82.00;;;;;;4168992;28;20056;-60
2024/03/20 08:58:31;;;;;;;12.90;6.13;;;16.70;81.80;;;;;;4154489;28;20052;-60
2024/03/20 09:01:10;;;;;;;14.90;6.20;;;16.70;81.40;;;;;;4149597;28;20052;-59
2024/03/20 09:03:52;;;;;;;12.82;6.03;;;16.70;81.30;;;;;;4152188;28;20135;-60
2024/03/20 09:06:31;;;;;;;13.77;6.65;;;16.80;81.20;;;;;;4154724;28;20818;-60
2024/03/20 09:09:11;;;;;;;8.00;5.97;;;16.80;81.60;;;;;;4167169;28;20549;-60
2024/03/20 09:11:51;;;;;;;12.80;7.05;;;16.80;80.40;;;;;;4170481;28;20079;-50
2024/03/20 09:14:31;;;;;;;8.45;5.30;;;16.80;80.00;;;;;;4164657;28;20059;-60
2024/03/20 09:17:11;;;;;;;8.27;5.50;;;16.90;79.80;;;;;;4153895;28;20068;-60
2024/03/20 09:19:51;;;;;;;11.38;5.80;;;16.90;79.60;;;;;;4158291;28;20470;-52
2024/03/20 09:22:31;;;;;;;13.80;6.38;;;16.80;79.40;;;;;;4151824;28;20094;-51
2024/03/20 09:25:11;;;;;;;10.10;5.97;;;16.80;79.20;;;;;;4167529;28;20047;-54
2024/03/20 09:27:52;;;;;;;10.77;5.63;;;16.80;79.10;;;;;;4153844;28;20160;-52
2024/03/20 09:30:31;;;;;;;9.38;5.63;;;16.80;78.90;;;;;;4137626;28;20127;-52
2024/03/20 09:33:11;;;;;;;9.95;5.93;;;16.80;78.80;;;;;;4131779;28;20059;-53
2024/03/20 09:35:53;;;;;;;7.07;5.60;;;16.80;78.80;;;;;;4159804;28;20103;-45
2024/03/20 09:38:33;;;;;;;10.40;5.95;;;16.80;79.00;;;;;;4169701;28;20051;-49
2024/03/20 09:41:15;;;;;;;12.38;5.28;;;16.80;79.10;;;;;;4166561;28;20566;-51
2024/03/20 09:43:56;;;;;;;11.27;5.90;;;16.90;79.20;;;;;;4167760;28;20060;-50
2024/03/20 09:46:35;;;;;;;9.55;5.47;;;16.90;79.10;;;;;;4142762;28;20056;-51
2024/03/20 09:49:17;;;;;;;11.48;5.65;;;16.90;78.90;;;;;;4136357;28;20052;-53
2024/03/20 09:51:58;;;;;;;10.85;5.55;;;17.00;78.80;;;;;;4151702;28;20052;-51
2024/03/20 09:54:39;;;;;;;11.52;6.03;;;17.00;78.50;;;;;;4161335;28;20119;-52
2024/03/20 09:57:22;;;;;;;10.27;6.10;;;17.00;78.20;;;;;;4153183;28;20056;-53
2024/03/20 10:00:07;;;;;;;15.65;6.40;;;17.10;78.40;;;;;;4152344;28;20135;-54
2024/03/20 10:02:48;;;;;;;18.20;6.45;;;17.10;78.40;;;;;;4167698;28;20079;-51
2024/03/20 10:05:28;;;;;;;10.70;5.13;;;17.10;78.40;;;;;;4165072;28;20475;-50
2024/03/20 10:08:12;;;;;;;10.35;5.47;;;17.20;78.30;;;;;;4165821;28;20051;-50
2024/03/20 10:10:54;;;;;;;10.90;5.40;;;17.20;78.00;;;;;;4154174;28;20459;-51
2024/03/20 10:13:34;;;;;;;8.90;5.38;;;17.20;77.80;;;;;;4159824;28;20092;-49
2024/03/20 10:16:15;;;;;;;13.40;5.82;;;17.20;78.60;;;;;;4147668;28;20408;-52
2024/03/20 10:18:54;;;;;;;14.23;6.15;;;17.30;77.60;;;;;;4153203;28;20084;-50
2024/03/20 10:21:34;;;;;;;16.33;6.30;;;17.30;77.40;;;;;;4141436;28;20049;-50
2024/03/20 10:24:17;;;;;;;12.68;5.70;;;17.30;77.10;;;;;;4141245;28;20056;-52
2024/03/20 10:26:58;;;;;;;11.80;5.72;;;17.40;76.90;;;;;;4166840;28;20056;-50
2024/03/20 10:29:39;;;;;;;12.27;5.10;;;17.40;76.80;;;;;;4154381;28;20044;-52
2024/03/20 10:32:20;;;;;;;13.10;5.50;;;17.40;76.60;;;;;;4151336;28;20341;-51
2024/03/20 10:35:01;;;;;;;10.20;4.85;;;17.40;76.50;;;;;;4150996;28;20390;-50
2024/03/20 10:37:43;;;;;;;8.80;4.47;;;17.40;76.30;;;;;;4143328;28;20100;-50
2024/03/20 10:40:24;;;;;;;13.98;5.82;;;17.40;76.10;;;;;;4138151;28;20076;-51
2024/03/20 10:43:05;;;;;;;12.48;5.15;;;17.40;75.80;;;;;;4140223;28;20459;-51
2024/03/20 10:45:45;;;;;;;12.68;5.20;;;17.50;75.70;;;;;;4161103;28;20052;-52
2024/03/20 10:48:25;;;;;;;14.82;5.90;;;17.50;75.60;;;;;;4168455;28;20131;-50
2024/03/20 10:51:08;;;;;;;6.47;4.45;;;17.50;75.40;;;;;;4159720;28;20064;-52
2024/03/20 10:53:48;;;;;;;14.15;5.40;;;17.50;75.30;;;;;;4146946;28;20127;-50
2024/03/20 10:56:29;;;;;;;14.85;6.63;;;17.50;75.10;;;;;;4170575;28;20066;-53
2024/03/20 10:59:14;;;;;;;11.52;5.10;;;17.50;74.40;;;;;;4166759;28;20387;-51
2024/03/20 11:01:58;;;;;;;7.93;5.50;;;17.50;74.00;;;;;;4174709;28;20697;-50
2024/03/20 11:04:41;;;;;;;10.00;5.78;;;17.50;73.90;;;;;;4149490;28;20092;-53
2024/03/20 11:07:35;;;;;;;12.35;5.88;;;17.50;73.60;;;;;;4154112;28;20060;-50
2024/03/20 11:10:20;;;;;;;12.80;6.40;;;17.50;73.40;;;;;;4158838;28;20088;-55
2024/03/20 11:13:02;;;;;;;9.27;5.18;;;17.50;73.40;;;;;;4165373;28;20133;-50
2024/03/20 11:15:49;;;;;;;10.68;6.32;;;17.50;73.40;;;;;;4156709;28;20121;-52
2024/03/20 11:18:29;;;;;;;12.70;6.50;;;17.40;73.30;;;;;;4151275;28;20104;-51
2024/03/20 11:21:11;;;;;;;15.30;6.80;;;17.50;73.40;;;;;;4166689;28;20391;-54
2024/03/20 11:23:51;;;;;;;12.32;6.20;;;17.40;73.40;;;;;;4174690;28;20087;-50
2024/03/20 11:26:31;;;;;;;14.27;6.65;;;17.50;73.60;;;;;;4170272;28;20047;-52
2024/03/20 11:29:12;;;;;;;13.05;6.32;;;17.40;73.60;;;;;;4168110;28;20111;-50
2024/03/20 11:31:56;;;;;;;12.50;6.43;;;17.50;73.70;;;;;;4166491;28;20056;-51
2024/03/20 11:34:35;;;;;;;15.48;6.40;;;17.50;73.90;;;;;;4168061;28;20145;-51
2024/03/20 11:37:18;;;;;;;11.07;7.00;;;17.50;74.00;;;;;;4170743;28;20095;-51
2024/03/20 11:39:57;;;;;;;13.85;6.65;;;17.50;73.90;;;;;;4182125;28;20396;-53
2024/03/20 11:42:37;;;;;;;12.68;6.72;;;17.50;73.90;;;;;;4185913;28;20074;-51
2024/03/20 11:45:18;;;;;;;13.88;8.30;;;17.50;73.90;;;;;;4169450;28;20132;-53
2024/03/20 11:47:58;;;;;;;19.10;8.43;;;17.50;74.00;;;;;;4160789;28;20053;-51
2024/03/20 11:50:37;;;;;;;16.45;9.05;;;17.50;74.10;;;;;;4168099;28;20056;-53
2024/03/20 11:53:20;;;;;;;13.25;8.02;;;17.60;74.10;;;;;;4162561;28;20435;-53
2024/03/20 11:56:00;;;;;;;14.88;8.32;;;17.60;74.00;;;;;;4156644;28;20159;-51
2024/03/20 11:58:40;;;;;;;28.30;10.90;;;17.60;74.10;;;;;;4159117;28;20493;-52
2024/03/20 12:01:21;;;;;;;17.45;10.30;;;17.60;74.00;;;;;;4181037;28;20060;-52
2024/03/20 12:04:03;;;;;;;13.45;10.10;;;17.60;74.00;;;;;;4176376;28;20157;-52
2024/03/20 12:06:42;;;;;;;15.52;10.43;;;17.60;74.00;;;;;;4170412;28;20060;-52
2024/03/20 12:09:26;;;;;;;19.67;11.80;;;17.60;73.90;;;;;;4157006;28;20051;-55
2024/03/20 12:12:08;;;;;;;19.88;10.85;;;17.60;73.80;;;;;;4172023;28;20055;-53
2024/03/20 12:14:47;;;;;;;19.23;11.18;;;17.60;74.00;;;;;;4177166;28;20051;-50
2024/03/20 12:17:28;;;;;;;18.70;10.63;;;17.60;74.10;;;;;;4178949;28;20099;-51
2024/03/20 12:20:08;;;;;;;;;;;17.60;73.80;;;;;;4182650;28;20541;-50
2024/03/20 12:22:48;;;;;;;20.98;10.35;;;17.60;74.10;;;;;;4177123;28;19931;-50
2024/03/20 12:25:27;;;;;;;23.13;12.10;;;17.60;74.00;;;;;;4177808;28;20777;-55
2024/03/20 12:28:10;;;;;;;16.90;10.38;;;17.60;74.00;;;;;;4167809;28;20060;-56
2024/03/20 12:30:50;;;;;;;16.63;9.98;;;17.60;74.00;;;;;;4168333;28;20067;-53
2024/03/20 12:33:31;;;;;;;17.50;11.23;;;17.60;74.10;;;;;;4168331;28;20060;-53
2024/03/20 12:36:11;;;;;;;20.60;10.35;;;17.60;74.20;;;;;;4145672;28;20052;-52
2024/03/20 12:38:52;;;;;;;19.02;9.75;;;17.50;74.40;;;;;;4183980;28;20083;-51
2024/03/20 12:41:31;;;;;;;17.95;11.45;;;17.50;74.60;;;;;;4185215;28;20074;-52
2024/03/20 12:44:11;;;;;;;17.92;12.35;;;17.50;74.80;;;;;;4171429;28;20106;-51
2024/03/20 12:46:50;;;;;;;16.52;11.13;;;17.60;75.00;;;;;;4162705;28;20094;-54
2024/03/20 12:49:32;;;;;;;20.30;11.88;;;17.50;75.10;;;;;;4168183;28;20198;-55
2024/03/20 12:52:13;;;;;;;18.52;12.13;;;17.60;75.30;;;;;;4191662;28;20523;-50
2024/03/20 12:54:52;;;;;;;19.58;11.57;;;17.50;75.40;;;;;;4182792;28;20517;-52
2024/03/20 12:57:31;;;;;;;19.33;10.73;;;17.60;75.70;;;;;;4161194;28;20107;-52
2024/03/20 13:00:16;;;;;;;22.73;12.20;;;17.60;75.60;;;;;;4169454;28;20107;-50
2024/03/20 13:02:55;;;;;;;17.77;12.48;;;17.60;75.60;;;;;;4171651;28;20522;-54
2024/03/20 13:05:36;;;;;;;23.75;12.10;;;17.60;75.60;;;;;;4161338;28;20112;-53
2024/03/20 13:08:19;;;;;;;21.85;13.30;;;17.60;75.60;;;;;;4178003;28;20087;-53
2024/03/20 13:10:59;;;;;;;24.15;13.02;;;17.60;75.70;;;;;;4168430;28;20048;-54
2024/03/20 13:13:38;;;;;;;22.48;12.70;;;17.60;75.70;;;;;;4172919;28;20178;-55
2024/03/20 13:16:18;;;;;;;18.23;12.10;;;17.60;75.80;;;;;;4166902;28;20145;-55
2024/03/20 13:18:58;;;;;;;19.52;11.70;;;17.60;75.80;;;;;;4181787;28;20114;-54
2024/03/20 13:21:47;;;;;;;18.67;12.97;;;17.60;76.20;;;;;;4153313;28;20545;-52
2024/03/20 13:24:26;;;;;;;20.83;11.98;;;17.60;76.40;;;;;;4148576;28;20670;-50
2024/03/20 13:27:07;;;;;;;20.60;11.63;;;17.60;76.40;;;;;;4157204;28;20122;-54
2024/03/20 13:29:49;;;;;;;19.63;10.35;;;17.60;76.20;;;;;;4169019;28;20101;-52
2024/03/20 13:32:34;;;;;;;18.52;11.80;;;17.60;76.20;;;;;;4167775;28;20126;-53
2024/03/20 13:35:13;;;;;;;20.60;11.07;;;17.60;76.30;;;;;;4169937;28;20140;-50
2024/03/20 13:38:03;;;;;;;16.67;10.88;;;17.60;76.20;;;;;;4164263;28;20122;-52
2024/03/20 13:40:46;;;;;;;22.38;11.52;;;17.60;76.20;;;;;;4147626;28;20095;-50
2024/03/20 13:46:23;;;;;;;21.48;11.77;;;17.60;76.20;;;;;;4149882;28;20052;-51
2024/03/20 13:49:03;;;;;;;18.80;11.32;;;17.60;76.20;;;;;;4167378;28;20055;-52
2024/03/20 13:51:44;;;;;;;21.35;11.70;;;17.60;76.20;;;;;;4170067;28;20139;-52
2024/03/20 13:54:24;;;;;;;18.85;12.02;;;17.60;76.30;;;;;;4160006;28;21737;-54